^^
Station Historical Data
 
Daily Summary for December 15, 2017 Units:  Metric    English   Both
« Previous Day
Next Day »
Daily Weekly Monthly Yearly Custom
  Current: High: Low: Average:
Temperature: 19.4 °C 23.7 °C 19.4 °C 21.8 °C
Dew Point: 7.2 °C 8.5 °C 7.2 °C 8.1 °C
Humidity: 45% 46% 36% 42%
Wind Speed: 0km/h 13km/h 0km/h 5.6km/h
Wind Gust: 0km/h 14.5km/h - -
WindCalm - - South
Pressure: 1009.4 hPa 1010.7 hPa 1009.4 hPa -
Precipitation: 0 mm      
Historical Graphs
 
 
Tabular Data for December 15, 2017
Time Temperature Dew Point Pressure Wind Wind Speed Wind Gust Humidity Rainfall Rate (Hourly) solar Conditions
00:02 23.7 °C 7.7 °C 1010.7 hPa South 7.9 km/h 12.9 km/h 36% 0 mm 0.0 W/m2
00:07 23.6 °C 7.7 °C 1010.7 hPa South 11.1 km/h 11.3 km/h 36% 0 mm 0.0 W/m2
00:12 23.5 °C 8 °C 1010.7 hPa South 7.9 km/h 14.5 km/h 37% 0 mm 0.0 W/m2
00:17 23.4 °C 7.9 °C 1010.7 hPa South 7.9 km/h 11.3 km/h 37% 0 mm 0.0 W/m2
00:22 23.3 °C 8.2 °C 1010.7 hPa South 11.1 km/h 12.9 km/h 38% 0 mm 0.0 W/m2
00:27 23.2 °C 8.1 °C 1010.7 hPa South 9.7 km/h 11.3 km/h 38% 0 mm 0.0 W/m2
00:32 23.1 °C 8 °C 1010.4 hPa South 11.1 km/h 11.3 km/h 38% 0 mm 0.0 W/m2
00:37 22.9 °C 8.2 °C 1010.4 hPa South 9.7 km/h 11.3 km/h 39% 0 mm 0.0 W/m2
00:42 22.8 °C 8.1 °C 1010.4 hPa South 9.7 km/h 11.3 km/h 39% 0 mm 0.0 W/m2
00:52 22.6 °C 8.3 °C 1010 hPa South 13 km/h 13 km/h 40% 0 mm 0.0 W/m2
01:02 22.4 °C 8.5 °C 1010 hPa South 7.9 km/h 11.3 km/h 41% 0 mm 0.0 W/m2
01:07 22.3 °C 8.4 °C 1010 hPa South 6.4 km/h 11.3 km/h 41% 0 mm 0.0 W/m2
01:12 22.2 °C 8.3 °C 1010 hPa South 9.7 km/h 9.7 km/h 41% 0 mm 0.0 W/m2
01:23 21.9 °C 8.4 °C 1010 hPa South 7.9 km/h 9.7 km/h 42% 0 mm 0.0 W/m2
01:33 21.6 °C 8.5 °C 1010 hPa South 6.4 km/h 9.7 km/h 43% 0 mm 0.0 W/m2
01:38 21.4 °C 8.3 °C 1009.7 hPa South 7.9 km/h 9.7 km/h 43% 0 mm 0.0 W/m2
01:43 21.3 °C 8.2 °C 1009.7 hPa South 6.4 km/h 8 km/h 43% 0 mm 0.0 W/m2
01:53 21.1 °C 8.4 °C 1009.7 hPa Calm   3.2 km/h 44% 0 mm 0.0 W/m2
01:58 20.9 °C 8.2 °C 1009.7 hPa Calm     44% 0 mm 0.0 W/m2
02:04 20.8 °C 8.4 °C 1009.7 hPa Calm     45% 0 mm 0.0 W/m2
02:09 20.6 °C 8.2 °C 1009.7 hPa Calm     45% 0 mm 0.0 W/m2
02:19 20.3 °C 8.3 °C 1009.4 hPa Calm     46% 0 mm 0.0 W/m2
02:25 20.2 °C 8.2 °C 1009.4 hPa Calm     46% 0 mm 0.0 W/m2
02:30 20.1 °C 8.1 °C 1009.4 hPa Calm     46% 0 mm 0.0 W/m2
02:35 19.9 °C 7.6 °C 1009.4 hPa Calm     45% 0 mm 0.0 W/m2
02:40 19.7 °C 7.4 °C 1009.4 hPa Calm     45% 0 mm 0.0 W/m2
02:45 19.4 °C 7.2 °C 1009.4 hPa Calm     45% 0 mm 0.0 W/m2
Canyon Roadhouse, Fishriver Canyon, Namibia
Compliments of Weather Underground - 1.75 mb